sensor_id;sensor_type;location;lat;lon;timestamp;P1;durP1;ratioP1;P2;durP2;ratioP2
78824;SDS011;68176;45.554;10.220;2023-11-19T00:02:20;3.85;;;2.50;;
78824;SDS011;68176;45.554;10.220;2023-11-19T00:04:50;5.13;;;2.40;;
78824;SDS011;68176;45.554;10.220;2023-11-19T00:07:20;4.38;;;2.42;;
78824;SDS011;68176;45.554;10.220;2023-11-19T00:09:50;3.67;;;2.58;;
78824;SDS011;68176;45.554;10.220;2023-11-19T00:12:20;4.25;;;2.42;;
78824;SDS011;68176;45.554;10.220;2023-11-19T00:14:50;5.13;;;2.67;;
78824;SDS011;68176;45.554;10.220;2023-11-19T00:17:20;5.15;;;2.92;;
78824;SDS011;68176;45.554;10.220;2023-11-19T00:19:50;3.88;;;2.58;;
78824;SDS011;68176;45.554;10.220;2023-11-19T00:22:20;5.43;;;2.15;;
78824;SDS011;68176;45.554;10.220;2023-11-19T00:24:50;3.75;;;2.42;;
78824;SDS011;68176;45.554;10.220;2023-11-19T00:27:20;3.85;;;2.83;;
78824;SDS011;68176;45.554;10.220;2023-11-19T00:29:51;3.85;;;2.70;;
78824;SDS011;68176;45.554;10.220;2023-11-19T00:32:21;4.20;;;2.72;;
78824;SDS011;68176;45.554;10.220;2023-11-19T00:34:50;3.58;;;2.92;;
78824;SDS011;68176;45.554;10.220;2023-11-19T00:37:20;4.57;;;2.28;;
78824;SDS011;68176;45.554;10.220;2023-11-19T02:55:44;3.80;;;2.20;;
78824;SDS011;68176;45.554;10.220;2023-11-19T02:58:13;3.55;;;2.50;;
78824;SDS011;68176;45.554;10.220;2023-11-19T03:00:49;4.43;;;2.63;;
78824;SDS011;68176;45.554;10.220;2023-11-19T03:03:34;3.23;;;2.10;;
78824;SDS011;68176;45.554;10.220;2023-11-19T03:06:06;2.83;;;2.07;;
78824;SDS011;68176;45.554;10.220;2023-11-19T03:08:35;2.33;;;1.10;;
78824;SDS011;68176;45.554;10.220;2023-11-19T03:11:00;1.90;;;1.70;;
78824;SDS011;68176;45.554;10.220;2023-11-19T03:13:28;2.33;;;1.52;;
78824;SDS011;68176;45.554;10.220;2023-11-19T03:15:58;3.08;;;2.42;;
78824;SDS011;68176;45.554;10.220;2023-11-19T03:18:28;3.10;;;1.98;;
78824;SDS011;68176;45.554;10.220;2023-11-19T03:20:58;5.03;;;2.45;;
78824;SDS011;68176;45.554;10.220;2023-11-19T03:25:58;4.03;;;2.42;;
78824;SDS011;68176;45.554;10.220;2023-11-19T03:30:58;3.03;;;1.85;;
78824;SDS011;68176;45.554;10.220;2023-11-19T03:33:28;3.38;;;2.20;;
78824;SDS011;68176;45.554;10.220;2023-11-19T03:38:28;3.67;;;2.10;;
78824;SDS011;68176;45.554;10.220;2023-11-19T03:40:58;3.53;;;1.98;;
78824;SDS011;68176;45.554;10.220;2023-11-19T03:43:28;3.15;;;1.98;;
78824;SDS011;68176;45.554;10.220;2023-11-19T03:45:58;2.67;;;1.85;;
78824;SDS011;68176;45.554;10.220;2023-11-19T03:48:28;3.80;;;2.38;;
78824;SDS011;68176;45.554;10.220;2023-11-19T03:50:58;2.80;;;1.83;;
78824;SDS011;68176;45.554;10.220;2023-11-19T03:53:28;4.70;;;2.60;;
78824;SDS011;68176;45.554;10.220;2023-11-19T03:55:58;3.30;;;2.38;;
78824;SDS011;68176;45.554;10.220;2023-11-19T04:00:58;4.00;;;2.15;;
78824;SDS011;68176;45.554;10.220;2023-11-19T04:03:28;4.25;;;2.28;;
78824;SDS011;68176;45.554;10.220;2023-11-19T04:08:28;3.83;;;2.13;;
78824;SDS011;68176;45.554;10.220;2023-11-19T04:13:28;3.22;;;2.03;;
78824;SDS011;68176;45.554;10.220;2023-11-19T04:15:58;2.90;;;2.25;;
78824;SDS011;68176;45.554;10.220;2023-11-19T04:18:28;2.85;;;1.75;;
78824;SDS011;68176;45.554;10.220;2023-11-19T04:23:28;3.88;;;1.70;;
78824;SDS011;68176;45.554;10.220;2023-11-19T04:26:01;3.10;;;1.85;;
78824;SDS011;68176;45.554;10.220;2023-11-19T04:28:28;4.95;;;2.55;;
78824;SDS011;68176;45.554;10.220;2023-11-19T04:30:59;4.75;;;2.47;;
78824;SDS011;68176;45.554;10.220;2023-11-19T04:33:29;3.25;;;1.90;;
78824;SDS011;68176;45.554;10.220;2023-11-19T04:36:00;2.85;;;1.50;;
78824;SDS011;68176;45.554;10.220;2023-11-19T04:38:29;2.75;;;1.70;;
78824;SDS011;68176;45.554;10.220;2023-11-19T04:40:58;4.40;;;1.98;;
78824;SDS011;68176;45.554;10.220;2023-11-19T04:43:29;3.10;;;1.58;;
78824;SDS011;68176;45.554;10.220;2023-11-19T04:45:59;3.38;;;2.10;;
78824;SDS011;68176;45.554;10.220;2023-11-19T04:50:59;3.08;;;1.63;;
78824;SDS011;68176;45.554;10.220;2023-11-19T04:53:29;4.65;;;1.95;;
78824;SDS011;68176;45.554;10.220;2023-11-19T04:55:59;2.60;;;1.60;;
78824;SDS011;68176;45.554;10.220;2023-11-19T04:58:29;4.30;;;1.92;;
78824;SDS011;68176;45.554;10.220;2023-11-19T05:00:58;3.13;;;2.00;;
78824;SDS011;68176;45.554;10.220;2023-11-19T05:03:29;3.33;;;1.80;;
78824;SDS011;68176;45.554;10.220;2023-11-19T05:05:59;3.35;;;1.85;;
78824;SDS011;68176;45.554;10.220;2023-11-19T05:08:29;3.67;;;2.00;;
78824;SDS011;68176;45.554;10.220;2023-11-19T05:13:29;2.63;;;1.55;;
78824;SDS011;68176;45.554;10.220;2023-11-19T05:15:59;3.67;;;2.00;;
78824;SDS011;68176;45.554;10.220;2023-11-19T05:18:29;3.15;;;1.75;;
78824;SDS011;68176;45.554;10.220;2023-11-19T05:20:59;2.97;;;1.50;;
78824;SDS011;68176;45.554;10.220;2023-11-19T05:23:29;2.67;;;1.30;;
78824;SDS011;68176;45.554;10.220;2023-11-19T05:25:59;3.63;;;1.60;;
78824;SDS011;68176;45.554;10.220;2023-11-19T05:28:29;3.53;;;2.47;;
78824;SDS011;68176;45.554;10.220;2023-11-19T05:30:59;2.90;;;1.70;;
78824;SDS011;68176;45.554;10.220;2023-11-19T05:33:29;4.03;;;2.42;;
78824;SDS011;68176;45.554;10.220;2023-11-19T05:38:29;3.72;;;2.15;;
78824;SDS011;68176;45.554;10.220;2023-11-19T05:40:59;2.75;;;1.98;;
78824;SDS011;68176;45.554;10.220;2023-11-19T05:43:29;4.05;;;1.50;;
78824;SDS011;68176;45.554;10.220;2023-11-19T05:45:59;2.65;;;1.55;;
78824;SDS011;68176;45.554;10.220;2023-11-19T05:48:29;2.38;;;1.52;;
78824;SDS011;68176;45.554;10.220;2023-11-19T05:50:59;3.25;;;1.67;;
78824;SDS011;68176;45.554;10.220;2023-11-19T05:53:29;2.53;;;1.95;;
78824;SDS011;68176;45.554;10.220;2023-11-19T05:55:59;3.83;;;1.73;;
78824;SDS011;68176;45.554;10.220;2023-11-19T05:58:29;3.78;;;2.28;;
78824;SDS011;68176;45.554;10.220;2023-11-19T06:00:59;3.22;;;1.73;;
78824;SDS011;68176;45.554;10.220;2023-11-19T06:03:29;3.53;;;2.00;;
78824;SDS011;68176;45.554;10.220;2023-11-19T06:05:59;2.85;;;1.52;;
78824;SDS011;68176;45.554;10.220;2023-11-19T06:10:59;3.55;;;2.28;;
78824;SDS011;68176;45.554;10.220;2023-11-19T06:13:29;2.40;;;1.70;;
78824;SDS011;68176;45.554;10.220;2023-11-19T06:15:59;2.78;;;1.50;;
78824;SDS011;68176;45.554;10.220;2023-11-19T06:18:29;4.20;;;2.10;;
78824;SDS011;68176;45.554;10.220;2023-11-19T06:20:59;2.63;;;1.48;;
78824;SDS011;68176;45.554;10.220;2023-11-19T06:23:29;4.15;;;1.77;;
78824;SDS011;68176;45.554;10.220;2023-11-19T06:25:59;6.13;;;4.13;;
78824;SDS011;68176;45.554;10.220;2023-11-19T06:28:29;7.55;;;3.95;;
78824;SDS011;68176;45.554;10.220;2023-11-19T06:33:29;5.38;;;3.67;;
78824;SDS011;68176;45.554;10.220;2023-11-19T06:35:59;7.65;;;4.38;;
78824;SDS011;68176;45.554;10.220;2023-11-19T06:38:29;8.88;;;4.90;;
78824;SDS011;68176;45.554;10.220;2023-11-19T06:40:59;7.90;;;4.82;;
78824;SDS011;68176;45.554;10.220;2023-11-19T06:43:29;8.48;;;4.55;;
78824;SDS011;68176;45.554;10.220;2023-11-19T06:46:01;10.88;;;5.30;;
78824;SDS011;68176;45.554;10.220;2023-11-19T06:48:29;6.75;;;4.93;;
78824;SDS011;68176;45.554;10.220;2023-11-19T06:50:59;6.38;;;4.57;;
78824;SDS011;68176;45.554;10.220;2023-11-19T06:53:29;6.25;;;4.82;;
78824;SDS011;68176;45.554;10.220;2023-11-19T07:00:59;6.70;;;5.20;;
78824;SDS011;68176;45.554;10.220;2023-11-19T07:03:29;10.40;;;5.80;;
78824;SDS011;68176;45.554;10.220;2023-11-19T07:05:59;14.45;;;4.93;;
78824;SDS011;68176;45.554;10.220;2023-11-19T07:08:31;13.18;;;5.30;;
78824;SDS011;68176;45.554;10.220;2023-11-19T07:10:59;5.50;;;4.88;;
78824;SDS011;68176;45.554;10.220;2023-11-19T07:13:29;8.43;;;5.95;;
78824;SDS011;68176;45.554;10.220;2023-11-19T07:16:00;6.90;;;5.03;;
78824;SDS011;68176;45.554;10.220;2023-11-19T07:18:29;10.15;;;6.85;;
78824;SDS011;68176;45.554;10.220;2023-11-19T07:21:00;7.50;;;5.10;;
78824;SDS011;68176;45.554;10.220;2023-11-19T07:23:29;9.27;;;6.10;;
78824;SDS011;68176;45.554;10.220;2023-11-19T07:26:00;8.32;;;4.93;;
78824;SDS011;68176;45.554;10.220;2023-11-19T07:28:30;9.80;;;6.57;;
78824;SDS011;68176;45.554;10.220;2023-11-19T07:31:01;10.93;;;5.82;;
78824;SDS011;68176;45.554;10.220;2023-11-19T07:33:31;9.85;;;6.22;;
78824;SDS011;68176;45.554;10.220;2023-11-19T07:37:00;14.73;;;13.37;;
78824;SDS011;68176;45.554;10.220;2023-11-19T07:39:27;10.50;;;4.70;;
